PRIVATE WETTERSTATION BILLIGHEIM-ALLFELD                       ZURCK
Wetterdaten: Montag, 13.03.2017
Datum Zeit Temp. A. Temp. A. min Temp. A. max Feuchte A. Luftdruck Regen Wind Richtung Richtung Sonnenschein ET Solar Taupunkt Windchill Windben Empfang
13.03.2017 00:00 3,8 C 3,8 C 4,1 C 73 % 1018,2 hPa 0,0 l/m 0,0 km/h (0 Bft) N-NO 22 0 min 0,025 mm 0 W/m -0,6 C 3,8 C 8,0 km/h (2 Bft) 100 %
13.03.2017 00:10 3,6 C 3,6 C 3,8 C 74 % 1018,3 hPa 0,0 l/m 0,0 km/h (0 Bft) N 360 0 min 0,000 mm 0 W/m -0,6 C 3,6 C 3,2 km/h (1 Bft) 100 %
13.03.2017 00:20 3,4 C 3,4 C 3,6 C 74 % 1018,5 hPa 0,0 l/m 0,0 km/h (0 Bft) NO 45 0 min 0,000 mm 0 W/m -0,8 C 3,4 C 8,0 km/h (2 Bft) 100 %
13.03.2017 00:30 3,3 C 3,3 C 3,4 C 75 % 1018,5 hPa 0,0 l/m 0,0 km/h (0 Bft) NO 45 0 min 0,000 mm 0 W/m -0,7 C 3,3 C 4,8 km/h (1 Bft) 100 %
13.03.2017 00:40 3,1 C 3,1 C 3,3 C 75 % 1018,7 hPa 0,0 l/m 1,6 km/h (1 Bft) NO 45 0 min 0,000 mm 0 W/m -0,9 C 3,1 C 8,0 km/h (2 Bft) 90 %
13.03.2017 00:50 3,1 C 3,1 C 3,1 C 75 % 1018,9 hPa 0,0 l/m 0,0 km/h (0 Bft) O-NO 67 0 min 0,000 mm 0 W/m -0,9 C 3,1 C 4,8 km/h (1 Bft) 100 %
13.03.2017 01:00 3,0 C 3,0 C 3,1 C 75 % 1019,0 hPa 0,0 l/m 1,6 km/h (1 Bft) O-NO 67 0 min 0,025 mm 0 W/m -1,0 C 3,0 C 6,4 km/h (2 Bft) 100 %
13.03.2017 01:10 2,9 C 2,9 C 3,0 C 75 % 1019,3 hPa 0,0 l/m 0,0 km/h (0 Bft) O 90 0 min 0,000 mm 0 W/m -1,1 C 2,9 C 6,4 km/h (2 Bft) 100 %
13.03.2017 01:20 2,8 C 2,8 C 2,9 C 76 % 1019,6 hPa 0,0 l/m 0,0 km/h (0 Bft) O 90 0 min 0,000 mm 0 W/m -1,0 C 2,8 C 3,2 km/h (1 Bft) 100 %
13.03.2017 01:30 2,7 C 2,7 C 2,8 C 76 % 1019,6 hPa 0,0 l/m 0,0 km/h (0 Bft) O-NO 67 0 min 0,000 mm 0 W/m -1,1 C 2,7 C 4,8 km/h (1 Bft) 100 %
13.03.2017 01:40 2,6 C 2,6 C 2,7 C 77 % 1019,7 hPa 0,0 l/m 0,0 km/h (0 Bft) O-NO 67 0 min 0,000 mm 0 W/m -1,0 C 2,6 C 6,4 km/h (2 Bft) 99 %
13.03.2017 01:50 2,6 C 2,6 C 2,6 C 77 % 1019,6 hPa 0,0 l/m 0,0 km/h (0 Bft) O-NO 67 0 min 0,000 mm 0 W/m -1,0 C 2,6 C 9,7 km/h (2 Bft) 100 %
13.03.2017 02:00 2,7 C 2,6 C 2,7 C 76 % 1019,7 hPa 0,0 l/m 1,6 km/h (1 Bft) O 90 0 min 0,025 mm 0 W/m -1,1 C 2,7 C 16,1 km/h (3 Bft) 100 %
13.03.2017 02:10 2,8 C 2,7 C 2,8 C 76 % 1019,7 hPa 0,0 l/m 1,6 km/h (1 Bft) O 90 0 min 0,000 mm 0 W/m -1,0 C 2,8 C 12,9 km/h (3 Bft) 100 %
13.03.2017 02:20 2,9 C 2,8 C 2,9 C 75 % 1019,9 hPa 0,0 l/m 3,2 km/h (1 Bft) O 90 0 min 0,000 mm 0 W/m -1,1 C 2,9 C 12,9 km/h (3 Bft) 100 %
13.03.2017 02:30 2,9 C 2,9 C 2,9 C 75 % 1019,9 hPa 0,0 l/m 1,6 km/h (1 Bft) O 90 0 min 0,000 mm 0 W/m -1,1 C 2,9 C 11,3 km/h (2 Bft) 100 %
13.03.2017 02:40 2,9 C 2,8 C 2,9 C 75 % 1019,9 hPa 0,0 l/m 1,6 km/h (1 Bft) O 90 0 min 0,000 mm 0 W/m -1,1 C 2,9 C 9,7 km/h (2 Bft) 100 %
13.03.2017 02:50 2,9 C 2,8 C 2,9 C 75 % 1020,0 hPa 0,0 l/m 1,6 km/h (1 Bft) O-NO 67 0 min 0,000 mm 0 W/m -1,1 C 2,9 C 16,1 km/h (3 Bft) 100 %
13.03.2017 03:00 2,7 C 2,7 C 2,8 C 76 % 1020,0 hPa 0,0 l/m 1,6 km/h (1 Bft) O 90 0 min 0,025 mm 0 W/m -1,1 C 2,7 C 8,0 km/h (2 Bft) 100 %
13.03.2017 03:10 2,5 C 2,5 C 2,7 C 76 % 1020,2 hPa 0,0 l/m 1,6 km/h (1 Bft) O 90 0 min 0,000 mm 0 W/m -1,3 C 2,5 C 9,7 km/h (2 Bft) 100 %
13.03.2017 03:20 2,1 C 2,1 C 2,5 C 77 % 1020,1 hPa 0,0 l/m 0,0 km/h (0 Bft) N 0 0 min 0,000 mm 0 W/m -1,5 C 2,1 C 0,0 km/h (0 Bft) 100 %
13.03.2017 03:30 1,8 C 1,8 C 2,1 C 78 % 1020,1 hPa 0,0 l/m 0,0 km/h (0 Bft) N 0 0 min 0,000 mm 0 W/m -1,6 C 1,8 C 0,0 km/h (0 Bft) 100 %
13.03.2017 03:40 1,4 C 1,4 C 1,7 C 80 % 1020,1 hPa 0,0 l/m 0,0 km/h (0 Bft) N-NW 337 0 min 0,000 mm 0 W/m -1,7 C 1,4 C 1,6 km/h (1 Bft) 100 %
13.03.2017 03:50 1,0 C 1,0 C 1,4 C 81 % 1020,3 hPa 0,0 l/m 0,0 km/h (0 Bft) N 0 0 min 0,000 mm 0 W/m -1,9 C 1,0 C 0,0 km/h (0 Bft) 100 %
13.03.2017 04:00 0,7 C 0,7 C 1,0 C 82 % 1020,4 hPa 0,0 l/m 0,0 km/h (0 Bft) N 0 0 min 0,000 mm 0 W/m -2,0 C 0,7 C 0,0 km/h (0 Bft) 100 %
13.03.2017 04:10 0,3 C 0,3 C 0,7 C 83 % 1020,5 hPa 0,0 l/m 0,0 km/h (0 Bft) N 0 0 min 0,000 mm 0 W/m -2,2 C 0,3 C 0,0 km/h (0 Bft) 100 %
13.03.2017 04:20 0,2 C 0,2 C 0,3 C 84 % 1020,5 hPa 0,0 l/m 0,0 km/h (0 Bft) N 0 0 min 0,000 mm 0 W/m -2,2 C 0,2 C 0,0 km/h (0 Bft) 100 %
13.03.2017 04:30 0,0 C 0,0 C 0,2 C 84 % 1020,5 hPa 0,0 l/m 0,0 km/h (0 Bft) N 0 0 min 0,000 mm 0 W/m -2,4 C 0,0 C 0,0 km/h (0 Bft) 100 %
13.03.2017 04:40 -0,1 C -0,1 C 0,0 C 85 % 1020,5 hPa 0,0 l/m 0,0 km/h (0 Bft) N-NW 337 0 min 0,000 mm 0 W/m -2,3 C -0,1 C 1,6 km/h (1 Bft) 100 %
13.03.2017 04:50 -0,3 C -0,3 C -0,1 C 85 % 1020,8 hPa 0,0 l/m 0,0 km/h (0 Bft) N 0 0 min 0,000 mm 0 W/m -2,5 C -0,3 C 0,0 km/h (0 Bft) 100 %
13.03.2017 05:00 -0,4 C -0,4 C -0,3 C 86 % 1021,0 hPa 0,0 l/m 0,0 km/h (0 Bft) N 0 0 min 0,000 mm 0 W/m -2,4 C -0,4 C 0,0 km/h (0 Bft) 100 %
13.03.2017 05:10 -0,6 C -0,6 C -0,5 C 87 % 1021,0 hPa 0,0 l/m 0,0 km/h (0 Bft) N-NW 337 0 min 0,000 mm 0 W/m -2,5 C -0,6 C 3,2 km/h (1 Bft) 91 %
13.03.2017 05:20 -0,7 C -0,7 C -0,6 C 87 % 1021,0 hPa 0,0 l/m 0,0 km/h (0 Bft) N 0 0 min 0,000 mm 0 W/m -2,6 C -0,7 C 0,0 km/h (0 Bft) 100 %
13.03.2017 05:30 -0,9 C -0,9 C -0,7 C 87 % 1021,3 hPa 0,0 l/m 0,0 km/h (0 Bft) N-NW 337 0 min 0,000 mm 0 W/m -2,8 C -0,9 C 3,2 km/h (1 Bft) 99 %
13.03.2017 05:40 -1,0 C -1,0 C -0,9 C 87 % 1021,3 hPa 0,0 l/m 0,0 km/h (0 Bft) N 0 0 min 0,000 mm 0 W/m -2,9 C -1,0 C 0,0 km/h (0 Bft) 100 %
13.03.2017 05:50 -1,0 C -1,0 C -1,0 C 88 % 1021,3 hPa 0,0 l/m 0,0 km/h (0 Bft) N 0 0 min 0,000 mm 0 W/m -2,7 C -1,0 C 0,0 km/h (0 Bft) 100 %
13.03.2017 06:00 -1,0 C -1,0 C -1,0 C 88 % 1021,5 hPa 0,0 l/m 0,0 km/h (0 Bft) N-NW 337 0 min 0,000 mm 0 W/m -2,7 C -1,0 C 3,2 km/h (1 Bft) 100 %
13.03.2017 06:10 -1,0 C -1,0 C -1,0 C 88 % 1021,6 hPa 0,0 l/m 0,0 km/h (0 Bft) N 0 0 min 0,000 mm 0 W/m -2,7 C -1,0 C 0,0 km/h (0 Bft) 100 %
13.03.2017 06:20 -1,1 C -1,1 C -1,0 C 88 % 1021,7 hPa 0,0 l/m 0,0 km/h (0 Bft) N-NW 337 0 min 0,000 mm 0 W/m -2,8 C -1,1 C 4,8 km/h (1 Bft) 89 %
13.03.2017 06:30 -1,2 C -1,2 C -1,0 C 87 % 1021,8 hPa 0,0 l/m 0,0 km/h (0 Bft) N-NW 337 0 min 0,000 mm 0 W/m -3,1 C -1,2 C 3,2 km/h (1 Bft) 100 %
13.03.2017 06:40 -1,2 C -1,2 C -1,2 C 88 % 1021,9 hPa 0,0 l/m 0,0 km/h (0 Bft) N-NW 337 0 min 0,000 mm 0 W/m -2,9 C -1,2 C 3,2 km/h (1 Bft) 100 %
13.03.2017 06:50 -1,3 C -1,3 C -1,2 C 88 % 1022,1 hPa 0,0 l/m 0,0 km/h (0 Bft) N 0 0 min 0,000 mm 7 W/m -3,0 C -1,3 C 0,0 km/h (0 Bft) 100 %
13.03.2017 07:00 -1,3 C -1,3 C -1,3 C 88 % 1022,3 hPa 0,0 l/m 0,0 km/h (0 Bft) N 0 0 min 0,000 mm 16 W/m -3,0 C -1,3 C 0,0 km/h (0 Bft) 100 %
13.03.2017 07:10 -1,3 C -1,4 C -1,3 C 88 % 1022,3 hPa 0,0 l/m 0,0 km/h (0 Bft) N 0 0 min 0,000 mm 23 W/m -3,0 C -1,3 C 0,0 km/h (0 Bft) 100 %
13.03.2017 07:20 -1,2 C -1,3 C -1,2 C 88 % 1022,4 hPa 0,0 l/m 0,0 km/h (0 Bft) N-NW 337 0 min 0,000 mm 28 W/m -2,9 C -1,2 C 3,2 km/h (1 Bft) 100 %
13.03.2017 07:30 -1,1 C -1,2 C -1,1 C 88 % 1022,5 hPa 0,0 l/m 0,0 km/h (0 Bft) N-NW 337 0 min 0,000 mm 35 W/m -2,8 C -1,1 C 4,8 km/h (1 Bft) 100 %
13.03.2017 07:40 -1,1 C -1,2 C -1,1 C 88 % 1022,8 hPa 0,0 l/m 0,0 km/h (0 Bft) N-NW 337 0 min 0,000 mm 42 W/m -2,8 C -1,1 C 4,8 km/h (1 Bft) 100 %
13.03.2017 07:50 -0,9 C -1,1 C -0,9 C 88 % 1022,9 hPa 0,0 l/m 0,0 km/h (0 Bft) N 0 0 min 0,000 mm 46 W/m -2,6 C -0,9 C 0,0 km/h (0 Bft) 100 %
13.03.2017 08:00 -0,3 C -0,9 C -0,3 C 86 % 1023,0 hPa 0,0 l/m 1,6 km/h (1 Bft) O 90 0 min 0,025 mm 125 W/m -2,3 C -0,3 C 11,3 km/h (2 Bft) 100 %
13.03.2017 08:10 0,9 C -0,3 C 0,9 C 83 % 1023,2 hPa 0,0 l/m 1,6 km/h (1 Bft) O 90 10 min 0,000 mm 181 W/m -1,7 C 0,9 C 6,4 km/h (2 Bft) 100 %
13.03.2017 08:20 1,9 C 0,9 C 1,9 C 79 % 1023,2 hPa 0,0 l/m 1,6 km/h (1 Bft) O-NO 67 10 min 0,000 mm 190 W/m -1,3 C 1,9 C 8,0 km/h (2 Bft) 100 %
13.03.2017 08:30 2,7 C 1,9 C 2,7 C 75 % 1023,2 hPa 0,0 l/m 0,0 km/h (0 Bft) O 90 10 min 0,000 mm 234 W/m -1,3 C 2,7 C 4,8 km/h (1 Bft) 100 %
13.03.2017 08:40 3,5 C 2,7 C 3,5 C 73 % 1023,4 hPa 0,0 l/m 0,0 km/h (0 Bft) N 0 10 min 0,000 mm 255 W/m -0,9 C 3,5 C 0,0 km/h (0 Bft) 100 %
13.03.2017 08:50 4,1 C 3,5 C 4,1 C 70 % 1023,6 hPa 0,0 l/m 0,0 km/h (0 Bft) N 0 10 min 0,000 mm 306 W/m -0,9 C 4,1 C 0,0 km/h (0 Bft) 100 %
13.03.2017 09:00 4,8 C 4,2 C 4,8 C 67 % 1023,6 hPa 0,0 l/m 1,6 km/h (1 Bft) O 90 10 min 0,102 mm 339 W/m -0,8 C 4,8 C 8,0 km/h (2 Bft) 100 %
13.03.2017 09:10 5,1 C 4,8 C 5,1 C 66 % 1023,7 hPa 0,0 l/m 0,0 km/h (0 Bft) O 90 10 min 0,000 mm 364 W/m -0,7 C 5,1 C 6,4 km/h (2 Bft) 100 %
13.03.2017 09:20 5,5 C 5,1 C 5,5 C 66 % 1023,7 hPa 0,0 l/m 1,6 km/h (1 Bft) O 90 10 min 0,000 mm 392 W/m -0,3 C 5,5 C 9,7 km/h (2 Bft) 91 %
13.03.2017 09:30 5,8 C 5,5 C 5,8 C 64 % 1023,8 hPa 0,0 l/m 0,0 km/h (0 Bft) O-NO 67 10 min 0,000 mm 411 W/m -0,5 C 5,8 C 8,0 km/h (2 Bft) 100 %
13.03.2017 09:40 5,6 C 5,6 C 5,8 C 65 % 1023,9 hPa 0,0 l/m 3,2 km/h (1 Bft) SO 135 10 min 0,000 mm 436 W/m -0,4 C 5,6 C 20,9 km/h (4 Bft) 100 %
13.03.2017 09:50 6,1 C 5,6 C 6,1 C 66 % 1024,0 hPa 0,0 l/m 0,0 km/h (0 Bft) O-SO 112 10 min 0,000 mm 461 W/m 0,2 C 6,1 C 8,0 km/h (2 Bft) 100 %
13.03.2017 10:00 6,7 C 6,1 C 6,7 C 62 % 1024,1 hPa 0,0 l/m 0,0 km/h (0 Bft) O-NO 67 10 min 0,178 mm 476 W/m -0,1 C 6,7 C 6,4 km/h (2 Bft) 100 %
13.03.2017 10:10 6,7 C 6,6 C 6,7 C 62 % 1024,1 hPa 0,0 l/m 1,6 km/h (1 Bft) SO 135 10 min 0,000 mm 497 W/m -0,1 C 6,7 C 11,3 km/h (2 Bft) 100 %
13.03.2017 10:20 7,2 C 6,6 C 7,2 C 61 % 1024,2 hPa 0,0 l/m 1,5 km/h (1 Bft) S-SW 196 10 min 0,000 mm 520 W/m 0,2 C 7,2 C 6,4 km/h (2 Bft) 100 %
13.03.2017 10:30 7,4 C 7,2 C 7,6 C 61 % 1024,2 hPa 0,0 l/m 2,0 km/h (1 Bft) S-SO 155 10 min 0,000 mm 534 W/m 0,4 C 7,4 C 14,5 km/h (3 Bft) 100 %
13.03.2017 10:40 7,5 C 7,3 C 7,5 C 61 % 1024,2 hPa 0,0 l/m 1,1 km/h (1 Bft) O 87 10 min 0,000 mm 540 W/m 0,5 C 7,5 C 11,3 km/h (2 Bft) 99 %
13.03.2017 10:50 7,6 C 7,4 C 7,6 C 60 % 1024,2 hPa 0,0 l/m 2,6 km/h (1 Bft) SO 136 10 min 0,000 mm 568 W/m 0,3 C 7,6 C 11,3 km/h (2 Bft) 97 %
13.03.2017 11:00 7,8 C 7,6 C 7,8 C 59 % 1024,2 hPa 0,0 l/m 1,5 km/h (1 Bft) O-SO 107 10 min 0,205 mm 568 W/m 0,3 C 7,8 C 11,3 km/h (2 Bft) 98 %
13.03.2017 11:10 7,9 C 7,8 C 7,9 C 59 % 1024,3 hPa 0,0 l/m 1,3 km/h (1 Bft) O-SO 115 10 min 0,000 mm 573 W/m 0,4 C 7,9 C 8,0 km/h (2 Bft) 97 %
13.03.2017 11:20 8,4 C 7,9 C 8,4 C 59 % 1024,5 hPa 0,0 l/m 0,1 km/h (0 Bft) N-NO 31 10 min 0,000 mm 603 W/m 0,9 C 8,4 C 3,2 km/h (1 Bft) 97 %
13.03.2017 11:30 8,4 C 8,3 C 8,6 C 59 % 1024,5 hPa 0,0 l/m 2,4 km/h (1 Bft) W-SW 255 10 min 0,000 mm 619 W/m 0,9 C 8,4 C 9,7 km/h (2 Bft) 97 %
13.03.2017 11:40 8,8 C 8,4 C 8,8 C 57 % 1024,6 hPa 0,0 l/m 1,5 km/h (1 Bft) S-SW 209 10 min 0,000 mm 626 W/m 0,8 C 8,8 C 9,7 km/h (2 Bft) 97 %
13.03.2017 11:50 9,6 C 8,8 C 9,6 C 58 % 1024,6 hPa 0,0 l/m 2,1 km/h (1 Bft) S-SW 207 10 min 0,000 mm 603 W/m 1,8 C 9,6 C 9,7 km/h (2 Bft) 98 %
13.03.2017 12:00 10,1 C 9,6 C 10,1 C 55 % 1024,7 hPa 0,0 l/m 0,9 km/h (0 Bft) S 178 10 min 0,279 mm 647 W/m 1,5 C 10,1 C 11,3 km/h (2 Bft) 97 %
13.03.2017 12:10 9,7 C 9,6 C 10,1 C 55 % 1024,8 hPa 0,0 l/m 3,1 km/h (1 Bft) S 178 10 min 0,000 mm 664 W/m 1,1 C 9,7 C 16,1 km/h (3 Bft) 98 %
13.03.2017 12:20 10,0 C 9,7 C 10,0 C 53 % 1024,9 hPa 0,0 l/m 0,0 km/h (0 Bft) SO 142 10 min 0,000 mm 584 W/m 0,9 C 10,0 C 0,0 km/h (0 Bft) 97 %
13.03.2017 12:30 10,0 C 9,9 C 10,0 C 55 % 1025,0 hPa 0,0 l/m 1,0 km/h (0 Bft) N 360 10 min 0,000 mm 504 W/m 1,4 C 10,0 C 6,4 km/h (2 Bft) 98 %
13.03.2017 12:40 10,2 C 9,9 C 10,2 C 52 % 1025,1 hPa 0,0 l/m 0,1 km/h (0 Bft) N 5 10 min 0,000 mm 547 W/m 0,8 C 10,2 C 3,2 km/h (1 Bft) 97 %
13.03.2017 12:50 10,3 C 10,2 C 10,3 C 52 % 1025,2 hPa 0,0 l/m 2,2 km/h (1 Bft) N-NW 339 10 min 0,000 mm 628 W/m 0,9 C 10,3 C 8,0 km/h (2 Bft) 97 %
13.03.2017 13:00 10,5 C 10,3 C 10,5 C 51 % 1025,0 hPa 0,0 l/m 0,4 km/h (0 Bft) N-NO 24 10 min 0,279 mm 599 W/m 0,8 C 10,5 C 4,8 km/h (1 Bft) 98 %
13.03.2017 13:10 10,6 C 10,5 C 10,6 C 50 % 1024,8 hPa 0,0 l/m 1,3 km/h (1 Bft) O-NO 69 10 min 0,000 mm 492 W/m 0,6 C 10,6 C 6,4 km/h (2 Bft) 97 %
13.03.2017 13:20 10,6 C 10,6 C 10,6 C 51 % 1024,8 hPa 0,0 l/m 0,4 km/h (0 Bft) O 88 10 min 0,000 mm 392 W/m 0,9 C 10,6 C 4,8 km/h (1 Bft) 98 %
13.03.2017 13:30 10,4 C 10,4 C 10,6 C 51 % 1024,6 hPa 0,0 l/m 0,1 km/h (0 Bft) S 185 10 min 0,000 mm 373 W/m 0,7 C 10,4 C 3,2 km/h (1 Bft) 97 %
13.03.2017 13:40 10,6 C 10,4 C 10,6 C 50 % 1024,6 hPa 0,0 l/m 0,2 km/h (0 Bft) N 360 10 min 0,000 mm 408 W/m 0,6 C 10,6 C 4,8 km/h (1 Bft) 97 %
13.03.2017 13:50 11,0 C 10,6 C 11,0 C 52 % 1024,4 hPa 0,0 l/m 0,3 km/h (0 Bft) N-NW 339 10 min 0,000 mm 443 W/m 1,5 C 11,0 C 4,8 km/h (1 Bft) 97 %
13.03.2017 14:00 11,3 C 11,0 C 11,3 C 50 % 1024,5 hPa 0,0 l/m 0,6 km/h (0 Bft) N 351 10 min 0,204 mm 360 W/m 1,3 C 11,3 C 4,8 km/h (1 Bft) 97 %
13.03.2017 14:10 11,3 C 11,3 C 11,4 C 51 % 1024,2 hPa 0,0 l/m 0,5 km/h (0 Bft) W-SW 255 10 min 0,000 mm 369 W/m 1,5 C 11,3 C 4,8 km/h (1 Bft) 97 %
13.03.2017 14:20 11,3 C 11,2 C 11,4 C 51 % 1024,3 hPa 0,0 l/m 0,5 km/h (0 Bft) SW 231 10 min 0,000 mm 318 W/m 1,5 C 11,3 C 4,8 km/h (1 Bft) 97 %
13.03.2017 14:30 11,2 C 11,2 C 11,3 C 50 % 1024,3 hPa 0,0 l/m 0,1 km/h (0 Bft) SW 236 10 min 0,000 mm 258 W/m 1,2 C 11,2 C 3,2 km/h (1 Bft) 98 %
13.03.2017 14:40 11,2 C 11,2 C 11,2 C 50 % 1024,3 hPa 0,0 l/m 0,0 km/h (0 Bft) SW 234 10 min 0,000 mm 227 W/m 1,2 C 11,2 C 1,6 km/h (1 Bft) 97 %
13.03.2017 14:50 10,9 C 10,9 C 11,2 C 50 % 1024,2 hPa 0,0 l/m 0,0 km/h (0 Bft) W 259 10 min 0,000 mm 206 W/m 0,9 C 10,9 C 1,6 km/h (1 Bft) 98 %
13.03.2017 15:00 10,9 C 10,9 C 10,9 C 49 % 1024,5 hPa 0,0 l/m 0,0 km/h (0 Bft) W 260 10 min 0,127 mm 207 W/m 0,6 C 10,9 C 1,6 km/h (1 Bft) 97 %
13.03.2017 15:10 11,1 C 10,9 C 11,1 C 51 % 1024,7 hPa 0,0 l/m 2,1 km/h (1 Bft) NW 309 10 min 0,000 mm 199 W/m 1,4 C 11,1 C 8,0 km/h (2 Bft) 97 %
13.03.2017 15:20 11,1 C 11,1 C 11,1 C 50 % 1024,7 hPa 0,0 l/m 1,1 km/h (1 Bft) NW 315 10 min 0,000 mm 179 W/m 1,1 C 11,1 C 6,4 km/h (2 Bft) 98 %
13.03.2017 15:30 11,1 C 11,1 C 11,1 C 51 % 1024,8 hPa 0,0 l/m 3,2 km/h (1 Bft) W-NW 300 10 min 0,000 mm 160 W/m 1,4 C 11,1 C 8,0 km/h (2 Bft) 97 %
13.03.2017 15:40 11,4 C 11,1 C 11,4 C 52 % 1024,8 hPa 0,0 l/m 4,8 km/h (1 Bft) W-NW 292 0 min 0,000 mm 123 W/m 1,9 C 11,4 C 8,0 km/h (2 Bft) 100 %
13.03.2017 15:50 11,7 C 11,4 C 11,7 C 49 % 1024,9 hPa 0,0 l/m 6,0 km/h (2 Bft) W-NW 299 0 min 0,000 mm 91 W/m 1,3 C 11,7 C 11,3 km/h (2 Bft) 100 %
13.03.2017 16:00 11,8 C 11,7 C 11,8 C 48 % 1025,1 hPa 0,0 l/m 1,9 km/h (1 Bft) NW 304 0 min 0,101 mm 70 W/m 1,2 C 11,8 C 8,0 km/h (2 Bft) 100 %
13.03.2017 16:10 11,7 C 11,7 C 11,8 C 48 % 1025,1 hPa 0,0 l/m 3,4 km/h (1 Bft) W-NW 302 0 min 0,000 mm 62 W/m 1,1 C 11,7 C 8,0 km/h (2 Bft) 100 %
13.03.2017 16:20 11,7 C 11,7 C 11,7 C 49 % 1025,3 hPa 0,0 l/m 3,6 km/h (1 Bft) W-NW 300 0 min 0,000 mm 56 W/m 1,3 C 11,7 C 11,3 km/h (2 Bft) 100 %
13.03.2017 16:30 11,5 C 11,5 C 11,7 C 49 % 1025,5 hPa 0,0 l/m 4,3 km/h (1 Bft) NW 306 0 min 0,000 mm 97 W/m 1,2 C 11,5 C 8,0 km/h (2 Bft) 100 %
13.03.2017 16:40 11,3 C 11,3 C 11,5 C 50 % 1025,4 hPa 0,0 l/m 0,0 km/h (0 Bft) W-NW 302 0 min 0,000 mm 111 W/m 1,3 C 11,3 C 1,6 km/h (1 Bft) 100 %
13.03.2017 16:50 11,1 C 11,1 C 11,3 C 50 % 1025,6 hPa 0,0 l/m 0,0 km/h (0 Bft) W-NW 302 0 min 0,000 mm 104 W/m 1,1 C 11,1 C 1,6 km/h (1 Bft) 100 %
13.03.2017 17:00 10,9 C 10,9 C 11,1 C 51 % 1025,5 hPa 0,0 l/m 0,0 km/h (0 Bft) W-NW 302 0 min 0,051 mm 97 W/m 1,2 C 10,9 C 0,0 km/h (0 Bft) 100 %
13.03.2017 17:10 10,9 C 10,8 C 10,9 C 51 % 1025,5 hPa 0,0 l/m 0,4 km/h (0 Bft) W-NW 302 0 min 0,000 mm 81 W/m 1,2 C 10,9 C 3,2 km/h (1 Bft) 100 %
13.03.2017 17:20 10,8 C 10,8 C 10,9 C 51 % 1025,5 hPa 0,0 l/m 0,4 km/h (0 Bft) W-NW 302 0 min 0,000 mm 63 W/m 1,1 C 10,8 C 4,8 km/h (1 Bft) 100 %
13.03.2017 17:30 10,6 C 10,6 C 10,8 C 52 % 1025,5 hPa 0,0 l/m 0,0 km/h (0 Bft) W-NW 302 0 min 0,000 mm 72 W/m 1,2 C 10,6 C 0,0 km/h (0 Bft) 100 %
13.03.2017 17:40 10,6 C 10,6 C 10,6 C 52 % 1025,7 hPa 0,0 l/m 0,9 km/h (0 Bft) W-NW 288 0 min 0,000 mm 63 W/m 1,2 C 10,6 C 6,4 km/h (2 Bft) 100 %
13.03.2017 17:50 10,6 C 10,6 C 10,6 C 51 % 1025,7 hPa 0,0 l/m 0,5 km/h (0 Bft) W-NW 288 0 min 0,000 mm 26 W/m 0,9 C 10,6 C 6,4 km/h (2 Bft) 100 %
13.03.2017 18:00 10,4 C 10,4 C 10,6 C 52 % 1026,0 hPa 0,0 l/m 0,0 km/h (0 Bft) W-NW 288 0 min 0,025 mm 21 W/m 1,0 C 10,4 C 1,6 km/h (1 Bft) 100 %
13.03.2017 18:10 10,2 C 10,2 C 10,4 C 52 % 1026,1 hPa 0,0 l/m 0,0 km/h (0 Bft) W-NW 288 0 min 0,000 mm 5 W/m 0,8 C 10,2 C 0,0 km/h (0 Bft) 100 %
13.03.2017 18:20 9,9 C 9,9 C 10,2 C 56 % 1026,1 hPa 0,0 l/m 0,0 km/h (0 Bft) W-NW 288 0 min 0,000 mm 0 W/m 1,5 C 9,9 C 0,0 km/h (0 Bft) 100 %
13.03.2017 18:30 9,4 C 9,4 C 9,9 C 58 % 1026,3 hPa 0,0 l/m 0,0 km/h (0 Bft) W-NW 288 0 min 0,000 mm 0 W/m 1,6 C 9,4 C 0,0 km/h (0 Bft) 100 %
13.03.2017 18:40 9,1 C 9,1 C 9,4 C 58 % 1026,7 hPa 0,0 l/m 0,0 km/h (0 Bft) W-NW 288 0 min 0,000 mm 0 W/m 1,3 C 9,1 C 0,0 km/h (0 Bft) 100 %
13.03.2017 18:50 8,9 C 8,9 C 9,1 C 59 % 1026,7 hPa 0,0 l/m 0,0 km/h (0 Bft) W-NW 288 0 min 0,000 mm 0 W/m 1,3 C 8,9 C 0,0 km/h (0 Bft) 100 %
13.03.2017 19:00 8,8 C 8,8 C 8,9 C 57 % 1026,7 hPa 0,0 l/m 0,0 km/h (0 Bft) W-NW 288 0 min 0,000 mm 0 W/m 0,8 C 8,8 C 0,0 km/h (0 Bft) 100 %
13.03.2017 19:10 8,5 C 8,5 C 8,8 C 58 % 1026,9 hPa 0,0 l/m 0,0 km/h (0 Bft) W-NW 288 0 min 0,000 mm 0 W/m 0,7 C 8,5 C 0,0 km/h (0 Bft) 100 %
13.03.2017 19:20 8,2 C 8,2 C 8,5 C 59 % 1027,0 hPa 0,0 l/m 0,0 km/h (0 Bft) W-NW 288 0 min 0,000 mm 0 W/m 0,7 C 8,2 C 0,0 km/h (0 Bft) 100 %
13.03.2017 19:30 8,0 C 8,0 C 8,2 C 61 % 1027,0 hPa 0,0 l/m 0,0 km/h (0 Bft) W-NW 288 0 min 0,000 mm 0 W/m 0,9 C 8,0 C 0,0 km/h (0 Bft) 100 %
13.03.2017 19:40 7,8 C 7,8 C 8,0 C 63 % 1027,1 hPa 0,0 l/m 0,0 km/h (0 Bft) W-NW 288 0 min 0,000 mm 0 W/m 1,2 C 7,8 C 0,0 km/h (0 Bft) 100 %
13.03.2017 19:50 7,6 C 7,6 C 7,8 C 61 % 1027,2 hPa 0,0 l/m 0,0 km/h (0 Bft) W-NW 288 0 min 0,000 mm 0 W/m 0,6 C 7,6 C 0,0 km/h (0 Bft) 100 %
13.03.2017 20:00 7,3 C 7,3 C 7,6 C 63 % 1027,4 hPa 0,0 l/m 0,0 km/h (0 Bft) W-NW 288 0 min 0,026 mm 0 W/m 0,7 C 7,3 C 0,0 km/h (0 Bft) 100 %
13.03.2017 20:10 7,2 C 7,2 C 7,3 C 62 % 1027,4 hPa 0,0 l/m 0,0 km/h (0 Bft) W-NW 288 0 min 0,000 mm 0 W/m 0,4 C 7,2 C 0,0 km/h (0 Bft) 100 %
13.03.2017 20:20 6,9 C 6,9 C 7,2 C 62 % 1027,3 hPa 0,0 l/m 0,0 km/h (0 Bft) W-NW 288 0 min 0,000 mm 0 W/m 0,1 C 6,9 C 0,0 km/h (0 Bft) 100 %
13.03.2017 20:30 6,6 C 6,6 C 6,9 C 64 % 1027,5 hPa 0,0 l/m 0,0 km/h (0 Bft) W-NW 288 0 min 0,000 mm 0 W/m 0,3 C 6,6 C 0,0 km/h (0 Bft) 100 %
13.03.2017 20:40 6,3 C 6,3 C 6,6 C 64 % 1027,7 hPa 0,0 l/m 0,0 km/h (0 Bft) W-NW 288 0 min 0,000 mm 0 W/m 0,0 C 6,3 C 0,0 km/h (0 Bft) 100 %
13.03.2017 20:50 5,9 C 5,9 C 6,3 C 66 % 1027,8 hPa 0,0 l/m 0,0 km/h (0 Bft) W-NW 288 0 min 0,000 mm 0 W/m 0,0 C 5,9 C 0,0 km/h (0 Bft) 100 %
13.03.2017 21:00 5,6 C 5,6 C 5,9 C 66 % 1028,0 hPa 0,0 l/m 0,0 km/h (0 Bft) W-NW 288 0 min 0,025 mm 0 W/m -0,2 C 5,6 C 0,0 km/h (0 Bft) 100 %
13.03.2017 21:10 5,3 C 5,3 C 5,6 C 69 % 1028,0 hPa 0,0 l/m 0,0 km/h (0 Bft) N 0 0 min 0,000 mm 0 W/m 0,1 C 5,3 C 0,0 km/h (0 Bft) 100 %
13.03.2017 21:20 5,1 C 5,1 C 5,3 C 70 % 1028,1 hPa 0,0 l/m 0,0 km/h (0 Bft) N 0 0 min 0,000 mm 0 W/m 0,1 C 5,1 C 0,0 km/h (0 Bft) 100 %
13.03.2017 21:30 4,9 C 4,9 C 5,1 C 72 % 1028,2 hPa 0,0 l/m 0,0 km/h (0 Bft) N 0 0 min 0,000 mm 0 W/m 0,3 C 4,9 C 0,0 km/h (0 Bft) 100 %
13.03.2017 21:40 4,7 C 4,7 C 4,9 C 72 % 1028,1 hPa 0,0 l/m 0,0 km/h (0 Bft) N 0 0 min 0,000 mm 0 W/m 0,1 C 4,7 C 0,0 km/h (0 Bft) 100 %
13.03.2017 21:50 4,5 C 4,5 C 4,7 C 74 % 1028,2 hPa 0,0 l/m 0,0 km/h (0 Bft) N 0 0 min 0,000 mm 0 W/m 0,3 C 4,5 C 0,0 km/h (0 Bft) 100 %
13.03.2017 22:00 4,4 C 4,4 C 4,5 C 76 % 1028,3 hPa 0,0 l/m 0,0 km/h (0 Bft) N 0 0 min 0,025 mm 0 W/m 0,5 C 4,4 C 0,0 km/h (0 Bft) 100 %
13.03.2017 22:10 4,4 C 4,4 C 4,4 C 75 % 1028,6 hPa 0,0 l/m 0,0 km/h (0 Bft) W-NW 292 0 min 0,000 mm 0 W/m 0,4 C 4,4 C 1,6 km/h (1 Bft) 100 %
13.03.2017 22:20 4,4 C 4,4 C 4,4 C 74 % 1028,7 hPa 0,0 l/m 0,0 km/h (0 Bft) N 0 0 min 0,000 mm 0 W/m 0,2 C 4,4 C 0,0 km/h (0 Bft) 100 %
13.03.2017 22:30 4,3 C 4,3 C 4,4 C 75 % 1029,0 hPa 0,0 l/m 0,0 km/h (0 Bft) N 0 0 min 0,000 mm 0 W/m 0,3 C 4,3 C 0,0 km/h (0 Bft) 100 %
13.03.2017 22:40 4,1 C 4,1 C 4,3 C 76 % 1029,1 hPa 0,0 l/m 0,0 km/h (0 Bft) N 0 0 min 0,000 mm 0 W/m 0,3 C 4,1 C 0,0 km/h (0 Bft) 100 %
13.03.2017 22:50 4,1 C 4,0 C 4,1 C 76 % 1029,1 hPa 0,0 l/m 0,0 km/h (0 Bft) N 0 0 min 0,000 mm 0 W/m 0,3 C 4,1 C 0,0 km/h (0 Bft) 100 %
13.03.2017 23:00 3,9 C 3,9 C 4,1 C 77 % 1029,2 hPa 0,0 l/m 0,0 km/h (0 Bft) N 0 0 min 0,025 mm 0 W/m 0,2 C 3,9 C 0,0 km/h (0 Bft) 100 %
13.03.2017 23:10 3,4 C 3,4 C 3,9 C 77 % 1029,2 hPa 0,0 l/m 0,0 km/h (0 Bft) N 0 0 min 0,000 mm 0 W/m -0,2 C 3,4 C 0,0 km/h (0 Bft) 100 %
13.03.2017 23:20 3,1 C 3,1 C 3,4 C 79 % 1029,3 hPa 0,0 l/m 0,0 km/h (0 Bft) N 0 0 min 0,000 mm 0 W/m -0,2 C 3,1 C 0,0 km/h (0 Bft) 100 %
13.03.2017 23:30 2,9 C 2,9 C 3,1 C 78 % 1029,3 hPa 0,0 l/m 0,0 km/h (0 Bft) N 0 0 min 0,000 mm 0 W/m -0,5 C 2,9 C 0,0 km/h (0 Bft) 100 %
13.03.2017 23:40 2,8 C 2,8 C 2,9 C 79 % 1029,2 hPa 0,0 l/m 0,0 km/h (0 Bft) N 0 0 min 0,000 mm 0 W/m -0,5 C 2,8 C 0,0 km/h (0 Bft) 100 %
13.03.2017 23:50 2,7 C 2,7 C 2,8 C 79 % 1029,3 hPa 0,0 l/m 0,0 km/h (0 Bft) N 0 0 min 0,000 mm 0 W/m -0,6 C 2,7 C 0,0 km/h (0 Bft) 100 %
_ Min-Zeit 07:10 07:10 07:00 16:00 00:00 - 00:00 - - - - - 06:30 06:50 03:20 06:20
Minimum _ -1,4 C -1,4 C -1,3 C 48 % 1018,2 hPa - 0,0 km/h (0 Bft) - - - - - -3,1 C -1,3 C 0,0 km/h (0 Bft) 89 %
_ Max-Zeit 16:00 16:00 16:00 05:50 23:20 00:00 15:50 - - 08:10 12:00 12:10 15:40 16:00 09:40 00:00
Maximum _ 11,8 C 11,7 C 11,8 C 88 % 1029,3 hPa 0,0 l/m 6,0 km/h
W-NW (2 Bft)
- - 10 min 0,279 mm 664 W/m 1,9 C 11,8 C 20,9 km/h
SO (4 Bft)
100 %
Durchschnitt _ 5,6 C 5,5 C 5,7 C 68 % 1024,0 hPa #0,0 l/m 0,6 km/h (0 Bft) O - #7:30 h #1,777 mm 297 W/m -0,3 C 5,6 C 4,2 km/h (1 Bft) 99 %
PRIVATE WETTERSTATION BILLIGHEIM-ALLFELD - www.neckar-odenwald-wetter.de - Holger Sonntag